createdAt,value
2018-05-24T00:02:13.409Z,18.75
2018-05-24T00:04:41.679Z,18.88
2018-05-24T00:07:09.961Z,18.78
2018-05-24T00:09:38.230Z,18.95
2018-05-24T00:12:06.510Z,19.05
2018-05-24T00:14:34.790Z,19.00
2018-05-24T00:17:03.057Z,18.95
2018-05-24T00:19:31.354Z,18.88
2018-05-24T00:21:59.618Z,18.95
2018-05-24T00:24:27.890Z,18.84
2018-05-24T00:26:56.176Z,18.96
2018-05-24T00:29:24.443Z,19.08
2018-05-24T00:31:52.736Z,18.98
2018-05-24T00:34:20.999Z,18.82
2018-05-24T00:36:49.266Z,18.80
2018-05-24T00:39:17.553Z,18.78
2018-05-24T00:41:45.831Z,18.86
2018-05-24T00:44:14.115Z,18.88
2018-05-24T00:46:42.385Z,18.70
2018-05-24T00:49:10.661Z,18.75
2018-05-24T00:51:38.942Z,18.63
2018-05-24T00:54:07.214Z,18.64
2018-05-24T00:56:35.499Z,18.65
2018-05-24T00:59:03.774Z,18.67
2018-05-24T01:01:32.039Z,18.61
2018-05-24T01:04:00.317Z,18.63
2018-05-24T01:06:28.594Z,18.53
2018-05-24T01:08:56.871Z,18.25
2018-05-24T01:11:25.147Z,18.29
2018-05-24T01:13:53.418Z,18.37
2018-05-24T01:16:21.694Z,18.30
2018-05-24T01:18:49.974Z,18.20
2018-05-24T01:21:18.247Z,18.03
2018-05-24T01:23:46.539Z,18.18
2018-05-24T01:26:14.810Z,18.19
2018-05-24T01:28:43.089Z,17.92
2018-05-24T01:31:11.365Z,18.00
2018-05-24T01:33:39.657Z,18.09
2018-05-24T01:36:07.930Z,17.95
2018-05-24T01:38:36.202Z,17.97
2018-05-24T01:41:04.493Z,17.77
2018-05-24T01:43:32.766Z,17.79
2018-05-24T01:46:01.053Z,17.81
2018-05-24T01:48:29.322Z,17.53
2018-05-24T01:50:57.633Z,17.68
2018-05-24T01:53:25.907Z,17.69
2018-05-24T01:55:54.177Z,17.74
2018-05-24T01:58:22.462Z,17.81
2018-05-24T02:00:50.730Z,17.69
2018-05-24T02:03:19.014Z,17.64
2018-05-24T02:05:47.304Z,17.62
2018-05-24T02:08:15.607Z,17.41
2018-05-24T02:10:43.886Z,17.59
2018-05-24T02:13:12.155Z,17.41
2018-05-24T02:15:40.558Z,17.31
2018-05-24T02:18:08.818Z,17.28
2018-05-24T02:20:37.106Z,17.42
2018-05-24T02:23:05.385Z,17.45
2018-05-24T02:25:33.673Z,17.39
2018-05-24T02:28:01.942Z,17.35
2018-05-24T02:30:30.210Z,17.32
2018-05-24T02:32:58.489Z,17.47
2018-05-24T02:35:26.762Z,17.14
2018-05-24T02:37:55.038Z,17.18
2018-05-24T02:40:23.311Z,16.98
2018-05-24T02:42:51.602Z,17.07
2018-05-24T02:45:19.878Z,16.99
2018-05-24T02:47:49.826Z,17.12
2018-05-24T02:50:18.114Z,17.07
2018-05-24T02:52:46.406Z,17.04
2018-05-24T02:55:15.167Z,16.86
2018-05-24T02:57:43.430Z,17.00
2018-05-24T03:00:11.734Z,16.86
2018-05-24T03:02:40.010Z,16.99
2018-05-24T03:05:08.281Z,16.92
2018-05-24T03:07:36.565Z,16.94
2018-05-24T03:10:04.841Z,17.01
2018-05-24T03:12:33.129Z,16.93
2018-05-24T03:15:01.407Z,17.07
2018-05-24T03:17:29.694Z,17.18
2018-05-24T03:19:57.957Z,17.02
2018-05-24T03:22:26.234Z,17.04
2018-05-24T03:24:54.515Z,17.18
2018-05-24T03:27:22.793Z,16.97
2018-05-24T03:29:51.098Z,16.87
2018-05-24T03:32:19.966Z,16.91
2018-05-24T03:34:48.258Z,17.02
2018-05-24T03:37:16.557Z,16.87
2018-05-24T03:39:44.840Z,17.00
2018-05-24T03:42:13.105Z,16.82
2018-05-24T03:44:41.614Z,16.87
2018-05-24T03:47:09.882Z,16.62
2018-05-24T03:49:38.170Z,16.71
2018-05-24T03:52:06.495Z,16.73
2018-05-24T03:54:34.749Z,16.75
2018-05-24T03:57:03.031Z,16.47
2018-05-24T04:02:52.924Z,16.31
2018-05-24T04:05:21.293Z,16.48
2018-05-24T04:07:49.538Z,16.42
2018-05-24T04:10:17.814Z,16.55
2018-05-24T04:12:48.433Z,16.36
2018-05-24T04:15:16.705Z,16.41
2018-05-24T04:17:45.001Z,16.41
2018-05-24T04:20:13.273Z,16.26
2018-05-24T04:22:41.552Z,16.32
2018-05-24T04:25:09.837Z,16.34
2018-05-24T04:27:38.114Z,16.19
2018-05-24T04:30:06.410Z,16.37
2018-05-24T04:32:34.685Z,16.45
2018-05-24T04:35:02.965Z,16.29
2018-05-24T04:37:31.250Z,16.43
2018-05-24T04:39:59.533Z,16.34
2018-05-24T04:42:27.813Z,16.27
2018-05-24T04:44:56.128Z,16.10
2018-05-24T04:47:24.419Z,16.13
2018-05-24T04:49:52.744Z,16.17
2018-05-24T04:52:21.016Z,16.32
2018-05-24T04:54:49.395Z,16.37
2018-05-24T04:57:17.674Z,16.43
2018-05-24T04:59:45.950Z,16.38
2018-05-24T05:02:14.224Z,16.42
2018-05-24T05:04:43.882Z,16.38
2018-05-24T05:07:12.154Z,16.53
2018-05-24T05:09:41.006Z,16.49
2018-05-24T05:12:09.290Z,16.41
2018-05-24T05:14:37.634Z,16.55
2018-05-24T05:17:05.858Z,16.53
2018-05-24T05:19:34.233Z,16.52
2018-05-24T05:22:02.440Z,16.61
2018-05-24T05:24:30.717Z,16.61
2018-05-24T05:26:58.998Z,16.61
2018-05-24T05:29:27.286Z,16.63
2018-05-24T05:31:55.561Z,16.66
2018-05-24T05:34:23.854Z,16.78
2018-05-24T05:36:52.217Z,16.88
2018-05-24T05:39:20.434Z,16.72
2018-05-24T05:41:48.714Z,16.74
2018-05-24T05:44:16.986Z,16.95
2018-05-24T05:46:45.280Z,16.67
2018-05-24T05:49:15.574Z,16.82
2018-05-24T05:51:43.858Z,16.94
2018-05-24T05:54:12.137Z,16.86
2018-05-24T05:56:40.442Z,16.87
2018-05-24T05:59:08.734Z,17.09
2018-05-24T06:01:37.056Z,17.14
2018-05-24T06:04:05.331Z,17.23
2018-05-24T06:06:33.631Z,17.08
2018-05-24T06:09:01.920Z,16.85
2018-05-24T06:11:30.198Z,17.08
2018-05-24T06:13:58.677Z,17.24
2018-05-24T06:16:26.852Z,17.27
2018-05-24T06:18:55.130Z,17.42
2018-05-24T06:21:23.413Z,17.46
2018-05-24T06:23:51.691Z,17.26
2018-05-24T06:26:19.969Z,17.47
2018-05-24T06:28:48.241Z,17.32
2018-05-24T06:31:16.531Z,17.26
2018-05-24T06:33:44.814Z,17.30
2018-05-24T06:36:13.090Z,17.33
2018-05-24T06:38:41.374Z,17.76
2018-05-24T06:41:09.658Z,17.67
2018-05-24T06:43:37.941Z,17.49
2018-05-24T06:46:06.218Z,17.71
2018-05-24T06:48:34.521Z,17.81
2018-05-24T06:51:02.806Z,17.71
2018-05-24T06:53:31.090Z,18.03
2018-05-24T06:55:59.380Z,18.07
2018-05-24T06:58:27.661Z,18.32
2018-05-24T07:00:55.953Z,18.27
2018-05-24T07:03:24.278Z,18.48
2018-05-24T07:05:52.622Z,18.79
2018-05-24T07:08:20.861Z,18.78
2018-05-24T07:10:49.147Z,18.88
2018-05-24T07:13:17.442Z,19.25
2018-05-24T07:15:45.714Z,20.04
2018-05-24T07:18:13.997Z,20.53
2018-05-24T07:20:42.266Z,19.82
2018-05-24T07:23:10.557Z,20.74
2018-05-24T07:25:38.825Z,21.87
2018-05-24T07:28:07.101Z,21.36
2018-05-24T07:30:35.386Z,21.32
2018-05-24T07:33:03.666Z,22.66
2018-05-24T07:35:31.955Z,22.76
2018-05-24T07:38:00.246Z,22.83
2018-05-24T07:40:28.530Z,23.71
2018-05-24T07:42:56.811Z,23.56
2018-05-24T07:45:25.074Z,23.76
2018-05-24T07:47:53.361Z,24.00
2018-05-24T07:50:25.830Z,24.49
2018-05-24T07:52:54.094Z,24.67
2018-05-24T07:55:22.370Z,23.81
2018-05-24T07:57:50.649Z,23.79
2018-05-24T08:00:18.922Z,23.44
2018-05-24T08:02:47.212Z,24.23
2018-05-24T08:05:15.494Z,25.08
2018-05-24T08:07:43.771Z,24.30
2018-05-24T08:10:12.058Z,24.65
2018-05-24T08:12:40.326Z,24.14
2018-05-24T08:15:08.618Z,24.37
2018-05-24T08:17:36.885Z,23.15
2018-05-24T08:20:05.154Z,23.04
2018-05-24T08:22:33.534Z,23.73
2018-05-24T08:25:01.718Z,22.48
2018-05-24T08:27:30.030Z,22.40
2018-05-24T08:29:58.303Z,23.27
2018-05-24T08:32:26.590Z,22.45
2018-05-24T08:34:54.862Z,22.69
2018-05-24T08:37:23.136Z,23.72
2018-05-24T08:39:51.413Z,23.80
2018-05-24T08:42:20.364Z,24.64
2018-05-24T08:44:48.642Z,24.31
2018-05-24T08:47:16.948Z,24.00
2018-05-24T08:49:45.193Z,25.34
2018-05-24T08:52:13.488Z,25.20
2018-05-24T08:54:41.763Z,24.38
2018-05-24T08:57:10.038Z,23.47
2018-05-24T08:59:38.418Z,23.58
2018-05-24T09:02:06.693Z,23.59
2018-05-24T09:04:34.988Z,24.91
2018-05-24T09:07:03.278Z,25.61
2018-05-24T09:09:31.542Z,25.92
2018-05-24T09:11:59.809Z,26.14
2018-05-24T09:14:28.099Z,25.94
2018-05-24T09:17:06.298Z,25.45
2018-05-24T09:19:34.577Z,25.65
2018-05-24T09:22:02.854Z,26.17
2018-05-24T09:24:31.151Z,26.41
2018-05-24T09:26:59.419Z,25.34
2018-05-24T09:29:27.714Z,24.88
2018-05-24T09:31:55.974Z,25.65
2018-05-24T09:34:24.241Z,24.75
2018-05-24T09:36:52.538Z,24.81
2018-05-24T09:39:20.811Z,24.36
2018-05-24T09:41:49.136Z,24.38
2018-05-24T09:44:17.407Z,23.91
2018-05-24T09:46:45.678Z,23.80
2018-05-24T09:49:13.957Z,23.74
2018-05-24T09:51:42.234Z,23.54
2018-05-24T09:54:10.517Z,23.59
2018-05-24T09:56:38.786Z,23.63
2018-05-24T09:59:07.083Z,23.24
2018-05-24T10:01:35.358Z,23.14
2018-05-24T10:04:03.637Z,22.97
2018-05-24T10:06:31.928Z,22.94
2018-05-24T10:09:00.198Z,22.96
2018-05-24T10:11:28.478Z,23.01
2018-05-24T10:13:56.749Z,22.97
2018-05-24T10:16:25.118Z,22.80
2018-05-24T10:18:53.311Z,23.11
2018-05-24T10:21:21.596Z,23.33
2018-05-24T10:23:49.878Z,23.34
2018-05-24T10:26:18.162Z,23.41
2018-05-24T10:28:46.465Z,23.46
2018-05-24T10:31:14.745Z,23.41
2018-05-24T10:33:43.027Z,23.28
2018-05-24T10:36:11.285Z,23.19
2018-05-24T10:38:39.621Z,23.16
2018-05-24T10:41:07.908Z,22.82
2018-05-24T10:43:36.787Z,22.84
2018-05-24T10:46:05.075Z,23.05
2018-05-24T10:48:33.349Z,22.89
2018-05-24T10:51:02.625Z,23.09
2018-05-24T10:53:30.830Z,22.82
2018-05-24T10:55:59.177Z,23.01
2018-05-24T10:58:27.431Z,23.02
2018-05-24T11:00:55.699Z,22.84
2018-05-24T11:03:24.100Z,22.90
2018-05-24T11:05:52.246Z,22.73
2018-05-24T11:08:20.530Z,22.37
2018-05-24T11:10:48.817Z,22.39
2018-05-24T11:13:17.093Z,22.38
2018-05-24T11:15:45.377Z,21.75
2018-05-24T11:18:13.646Z,21.70
2018-05-24T11:20:41.935Z,21.77
2018-05-24T11:23:10.209Z,22.02
2018-05-24T11:25:38.497Z,22.03
2018-05-24T11:28:06.770Z,21.95
2018-05-24T11:30:35.046Z,21.59
2018-05-24T11:33:03.350Z,21.84
2018-05-24T11:38:27.425Z,22.06
2018-05-24T11:44:08.640Z,22.22
2018-05-24T11:46:39.032Z,22.37
2018-05-24T11:49:09.195Z,22.43
2018-05-24T11:51:43.151Z,22.27
2018-05-24T11:54:11.441Z,22.45
2018-05-24T11:56:39.712Z,22.27
2018-05-24T11:59:08.998Z,22.01
2018-05-24T12:01:37.298Z,22.00
2018-05-24T12:04:05.586Z,21.87
2018-05-24T12:06:33.874Z,22.01
2018-05-24T12:09:02.150Z,22.04
2018-05-24T12:11:30.439Z,21.64
2018-05-24T12:13:58.757Z,21.95
2018-05-24T12:16:27.065Z,21.68
2018-05-24T12:18:55.344Z,22.01
2018-05-24T12:21:23.637Z,21.97
2018-05-24T12:23:52.071Z,21.73
2018-05-24T12:26:20.221Z,21.94
2018-05-24T12:28:48.511Z,22.12
2018-05-24T12:31:16.787Z,22.39
2018-05-24T12:33:45.069Z,22.22
2018-05-24T12:36:13.345Z,22.51
2018-05-24T12:38:41.636Z,22.52
2018-05-24T12:41:09.953Z,22.55
2018-05-24T12:43:38.233Z,21.94
2018-05-24T12:46:06.522Z,22.28
2018-05-24T12:48:34.803Z,22.54
2018-05-24T12:51:03.096Z,22.34
2018-05-24T12:53:31.378Z,22.51
2018-05-24T12:55:59.662Z,22.63
2018-05-24T12:58:27.954Z,22.65
2018-05-24T13:00:56.246Z,22.30
2018-05-24T13:03:24.525Z,22.79
2018-05-24T13:05:52.806Z,22.86
2018-05-24T13:08:21.100Z,22.58
2018-05-24T13:10:49.369Z,22.45
2018-05-24T13:13:17.710Z,22.44
2018-05-24T13:15:45.990Z,22.45
2018-05-24T13:18:14.280Z,22.31
2018-05-24T13:20:42.570Z,22.57
2018-05-24T13:23:10.878Z,22.48
2018-05-24T13:25:39.157Z,22.19
2018-05-24T13:28:07.437Z,22.43
2018-05-24T13:30:35.747Z,22.34
2018-05-24T13:33:04.070Z,22.29
2018-05-24T13:35:32.354Z,22.39
2018-05-24T13:38:00.637Z,22.17
2018-05-24T13:40:28.965Z,22.29
2018-05-24T13:42:57.215Z,22.43
2018-05-24T13:45:25.509Z,22.59
2018-05-24T13:47:53.787Z,22.45
2018-05-24T13:50:22.066Z,22.58
2018-05-24T13:52:50.354Z,22.10
2018-05-24T13:55:18.637Z,22.56
2018-05-24T13:57:47.413Z,22.72
2018-05-24T14:00:15.710Z,22.65
2018-05-24T14:02:44.017Z,22.24
2018-05-24T14:05:12.293Z,22.67
2018-05-24T14:07:40.577Z,21.96
2018-05-24T14:10:08.874Z,22.36
2018-05-24T14:12:37.158Z,22.20
2018-05-24T14:15:05.448Z,22.62
2018-05-24T14:17:33.837Z,22.69
2018-05-24T14:20:02.125Z,22.70
2018-05-24T14:22:30.409Z,22.40
2018-05-24T14:24:58.702Z,22.59
2018-05-24T14:27:26.985Z,22.21
2018-05-24T14:29:55.277Z,22.55
2018-05-24T14:32:23.553Z,22.79
2018-05-24T14:34:51.837Z,22.84
2018-05-24T14:37:20.121Z,22.46
2018-05-24T14:39:48.397Z,22.43
2018-05-24T14:42:16.685Z,22.77
2018-05-24T14:44:44.960Z,22.62
2018-05-24T14:47:13.245Z,22.65
2018-05-24T14:49:41.945Z,22.56
2018-05-24T14:52:10.297Z,22.77
2018-05-24T14:54:38.576Z,22.64
2018-05-24T14:57:06.854Z,22.76
2018-05-24T14:59:35.139Z,22.70
2018-05-24T15:02:03.409Z,22.87
2018-05-24T15:04:31.706Z,22.88
2018-05-24T15:07:00.066Z,22.74
2018-05-24T15:09:28.350Z,22.64
2018-05-24T15:11:56.617Z,22.77
2018-05-24T15:14:24.909Z,22.63
2018-05-24T15:16:53.187Z,22.76
2018-05-24T15:19:21.459Z,23.08
2018-05-24T15:21:49.738Z,22.94
2018-05-24T15:24:18.010Z,23.04
2018-05-24T15:26:46.298Z,22.88
2018-05-24T15:29:14.570Z,23.22
2018-05-24T15:31:42.853Z,23.10
2018-05-24T15:34:11.122Z,23.01
2018-05-24T15:36:39.407Z,23.05
2018-05-24T15:39:07.702Z,22.79
2018-05-24T15:41:35.977Z,23.13
2018-05-24T15:44:04.277Z,22.81
2018-05-24T15:46:32.617Z,23.13
2018-05-24T15:49:00.866Z,23.04
2018-05-24T15:51:29.135Z,23.15
2018-05-24T15:53:57.425Z,22.95
2018-05-24T15:56:25.697Z,22.98
2018-05-24T15:58:53.970Z,23.28
2018-05-24T16:01:22.250Z,23.14
2018-05-24T16:03:50.526Z,23.05
2018-05-24T16:06:18.804Z,22.87
2018-05-24T16:08:47.085Z,22.55
2018-05-24T16:11:15.382Z,22.69
2018-05-24T16:13:43.657Z,22.93
2018-05-24T16:16:12.242Z,23.01
2018-05-24T16:18:40.530Z,23.09
2018-05-24T16:21:08.814Z,23.00
2018-05-24T16:23:37.106Z,22.99
2018-05-24T16:26:05.389Z,23.10
2018-05-24T16:28:33.713Z,22.97
2018-05-24T16:31:01.967Z,22.92
2018-05-24T16:33:30.250Z,22.88
2018-05-24T16:35:58.538Z,22.69
2018-05-24T16:38:26.822Z,22.92
2018-05-24T16:40:55.115Z,22.75
2018-05-24T16:43:23.377Z,22.81
2018-05-24T16:45:51.686Z,22.76
2018-05-24T16:48:20.035Z,22.88
2018-05-24T16:50:48.319Z,22.91
2018-05-24T16:53:16.602Z,22.73
2018-05-24T16:55:44.873Z,22.71
2018-05-24T16:58:13.169Z,22.78
2018-05-24T17:00:41.447Z,22.74
2018-05-24T17:03:09.734Z,22.82
2018-05-24T17:05:38.019Z,22.63
2018-05-24T17:08:06.306Z,22.55
2018-05-24T17:10:34.687Z,22.44
2018-05-24T17:13:03.026Z,22.59
2018-05-24T17:15:31.306Z,22.60
2018-05-24T17:17:59.581Z,22.50
2018-05-24T17:20:27.878Z,22.63
2018-05-24T17:22:56.149Z,22.49
2018-05-24T17:25:24.452Z,22.64
2018-05-24T17:27:52.741Z,22.80
2018-05-24T17:30:21.053Z,22.67
2018-05-24T17:32:49.337Z,22.40
2018-05-24T17:35:17.598Z,22.66
2018-05-24T17:37:45.889Z,22.27
2018-05-24T17:40:14.157Z,22.46
2018-05-24T17:42:42.434Z,22.34
2018-05-24T17:45:10.713Z,22.39
2018-05-24T17:47:38.978Z,22.13
2018-05-24T17:50:07.394Z,22.26
2018-05-24T17:52:35.658Z,22.10
2018-05-24T17:55:03.987Z,22.26
2018-05-24T17:57:32.227Z,22.21
2018-05-24T18:00:00.502Z,22.33
2018-05-24T18:02:28.795Z,22.11
2018-05-24T18:04:57.072Z,22.19
2018-05-24T18:07:25.364Z,22.29
2018-05-24T18:09:53.654Z,22.26
2018-05-24T18:12:21.962Z,22.04
2018-05-24T18:14:50.287Z,22.33
2018-05-24T18:17:18.509Z,22.18
2018-05-24T18:19:46.810Z,22.23
2018-05-24T18:22:20.807Z,22.29
2018-05-24T18:24:49.109Z,22.29
2018-05-24T18:27:17.402Z,22.30
2018-05-24T18:29:45.721Z,22.32
2018-05-24T18:32:13.993Z,22.36
2018-05-24T18:34:42.274Z,22.31
2018-05-24T18:37:10.581Z,21.93
2018-05-24T18:39:38.869Z,22.00
2018-05-24T18:42:07.150Z,21.79
2018-05-24T18:44:35.461Z,22.05
2018-05-24T18:47:03.742Z,21.99
2018-05-24T18:49:32.021Z,21.85
2018-05-24T18:52:00.304Z,21.84
2018-05-24T18:54:28.581Z,21.70
2018-05-24T18:56:56.857Z,21.80
2018-05-24T18:59:25.148Z,21.78
2018-05-24T19:01:53.446Z,21.86
2018-05-24T19:04:21.697Z,21.86
2018-05-24T19:06:50.137Z,21.83
2018-05-24T19:09:18.402Z,21.87
2018-05-24T19:11:46.685Z,21.87
2018-05-24T19:14:14.994Z,21.92
2018-05-24T19:16:43.277Z,21.88
2018-05-24T19:19:11.541Z,21.82
2018-05-24T19:21:39.830Z,21.68
2018-05-24T19:24:08.094Z,21.72
2018-05-24T19:26:36.399Z,21.67
2018-05-24T19:29:04.645Z,21.45
2018-05-24T19:31:32.905Z,21.52
2018-05-24T19:34:01.202Z,21.27
2018-05-24T19:36:29.470Z,21.31
2018-05-24T19:38:57.765Z,21.30
2018-05-24T19:41:26.033Z,21.42
2018-05-24T19:43:54.311Z,21.07
2018-05-24T19:46:22.591Z,21.22
2018-05-24T19:48:50.904Z,21.30
2018-05-24T19:51:19.174Z,21.32
2018-05-24T19:53:47.445Z,21.07
2018-05-24T19:56:15.805Z,20.97
2018-05-24T19:58:44.125Z,21.15
2018-05-24T20:01:12.412Z,21.28
2018-05-24T20:03:40.705Z,21.17
2018-05-24T20:06:08.977Z,21.27
2018-05-24T20:08:37.266Z,21.14
2018-05-24T20:11:05.547Z,21.23
2018-05-24T20:13:33.809Z,21.23
2018-05-24T20:16:02.090Z,21.18
2018-05-24T20:18:30.360Z,21.04
2018-05-24T20:20:58.664Z,21.00
2018-05-24T20:23:27.038Z,20.77
2018-05-24T20:25:55.302Z,20.92
2018-05-24T20:28:23.578Z,20.77
2018-05-24T20:30:51.865Z,20.93
2018-05-24T20:33:20.178Z,20.81
2018-05-24T20:35:48.458Z,20.82
2018-05-24T20:38:16.726Z,20.75
2018-05-24T20:40:45.039Z,20.84
2018-05-24T20:43:13.305Z,20.83
2018-05-24T20:45:41.590Z,20.59
2018-05-24T20:48:09.871Z,20.71
2018-05-24T20:50:38.182Z,20.66
2018-05-24T20:53:06.430Z,20.63
2018-05-24T20:55:34.714Z,20.58
2018-05-24T20:58:03.039Z,20.26
2018-05-24T21:00:31.303Z,20.45
2018-05-24T21:02:59.569Z,20.12
2018-05-24T21:05:27.989Z,20.16
2018-05-24T21:07:56.265Z,20.28
2018-05-24T21:10:24.566Z,20.10
2018-05-24T21:12:52.839Z,20.29
2018-05-24T21:15:21.119Z,20.27
2018-05-24T21:17:49.408Z,20.24
2018-05-24T21:20:17.687Z,20.11
2018-05-24T21:22:45.982Z,20.16
2018-05-24T21:25:14.263Z,20.26
2018-05-24T21:27:42.531Z,20.11
2018-05-24T21:30:10.815Z,20.22
2018-05-24T21:32:39.080Z,20.04
2018-05-24T21:35:07.363Z,20.00
2018-05-24T21:37:35.630Z,20.11
2018-05-24T21:40:03.931Z,20.13
2018-05-24T21:42:32.294Z,19.82
2018-05-24T21:45:00.600Z,20.00
2018-05-24T21:47:28.837Z,20.06
2018-05-24T21:49:57.105Z,20.18
2018-05-24T21:52:25.391Z,20.03
2018-05-24T21:54:53.873Z,19.96
2018-05-24T21:57:22.158Z,19.98
2018-05-24T21:59:50.425Z,19.93
2018-05-24T22:02:18.707Z,19.98
2018-05-24T22:04:46.984Z,19.94
2018-05-24T22:07:15.258Z,19.85
2018-05-24T22:09:43.537Z,19.80
2018-05-24T22:12:11.802Z,19.73
2018-05-24T22:14:40.086Z,19.62
2018-05-24T22:17:08.376Z,19.55
2018-05-24T22:19:36.644Z,19.50
2018-05-24T22:22:04.917Z,19.59
2018-05-24T22:24:33.190Z,19.48
2018-05-24T22:27:01.471Z,19.43
2018-05-24T22:29:29.798Z,19.45
2018-05-24T22:31:58.039Z,19.43
2018-05-24T22:34:26.314Z,19.29
2018-05-24T22:36:54.578Z,19.28
2018-05-24T22:39:22.866Z,19.32
2018-05-24T22:41:51.146Z,19.30
2018-05-24T22:44:19.438Z,19.15
2018-05-24T22:46:47.709Z,18.96
2018-05-24T22:49:15.989Z,18.89
2018-05-24T22:51:44.273Z,18.87
2018-05-24T22:54:12.591Z,18.80
2018-05-24T22:56:40.879Z,18.68
2018-05-24T22:59:09.149Z,18.90
2018-05-24T23:01:37.446Z,19.01
2018-05-24T23:04:05.716Z,19.05
2018-05-24T23:06:33.986Z,19.06
2018-05-24T23:09:02.270Z,18.94
2018-05-24T23:11:30.537Z,19.08
2018-05-24T23:13:58.813Z,19.08
2018-05-24T23:16:27.086Z,19.02
2018-05-24T23:18:55.373Z,19.00
2018-05-24T23:21:23.646Z,18.84
2018-05-24T23:23:51.919Z,18.94
2018-05-24T23:26:20.202Z,18.62
2018-05-24T23:28:48.479Z,18.83
2018-05-24T23:31:16.778Z,18.80
2018-05-24T23:33:45.062Z,18.69
2018-05-24T23:36:13.354Z,18.77
2018-05-24T23:38:41.676Z,18.75
2018-05-24T23:41:09.906Z,18.70
2018-05-24T23:43:38.189Z,18.75
2018-05-24T23:46:06.471Z,18.61
2018-05-24T23:48:34.755Z,18.59
2018-05-24T23:51:03.040Z,18.43
2018-05-24T23:53:31.334Z,18.20
2018-05-24T23:55:59.626Z,18.19
2018-05-24T23:58:27.898Z,18.16
